sensor_id;sensor_type;location;lat;lon;timestamp;P1;durP1;ratioP1;P2;durP2;ratioP2
81487;SDS011;70897;52.464;13.428;2024-01-16T00:00:48;6.07;;;1.83;;
81487;SDS011;70897;52.464;13.428;2024-01-16T00:03:33;4.50;;;2.05;;
81487;SDS011;70897;52.464;13.428;2024-01-16T00:06:18;6.90;;;2.42;;
81487;SDS011;70897;52.464;13.428;2024-01-16T00:09:03;5.90;;;2.13;;
81487;SDS011;70897;52.464;13.428;2024-01-16T00:11:49;7.82;;;2.85;;
81487;SDS011;70897;52.464;13.428;2024-01-16T00:14:35;8.73;;;2.63;;
81487;SDS011;70897;52.464;13.428;2024-01-16T00:17:21;6.43;;;2.20;;
81487;SDS011;70897;52.464;13.428;2024-01-16T00:20:06;7.60;;;2.50;;
81487;SDS011;70897;52.464;13.428;2024-01-16T00:22:51;5.47;;;2.80;;
81487;SDS011;70897;52.464;13.428;2024-01-16T00:25:36;11.10;;;2.95;;
81487;SDS011;70897;52.464;13.428;2024-01-16T00:28:21;7.85;;;3.22;;
81487;SDS011;70897;52.464;13.428;2024-01-16T00:31:09;6.07;;;2.80;;
81487;SDS011;70897;52.464;13.428;2024-01-16T00:33:54;5.95;;;3.08;;
81487;SDS011;70897;52.464;13.428;2024-01-16T00:36:39;8.10;;;3.05;;
81487;SDS011;70897;52.464;13.428;2024-01-16T00:39:24;6.63;;;3.10;;
81487;SDS011;70897;52.464;13.428;2024-01-16T00:42:09;7.10;;;2.97;;
81487;SDS011;70897;52.464;13.428;2024-01-16T00:44:54;9.48;;;3.00;;
81487;SDS011;70897;52.464;13.428;2024-01-16T00:47:39;11.23;;;3.45;;
81487;SDS011;70897;52.464;13.428;2024-01-16T00:50:25;10.50;;;3.20;;
81487;SDS011;70897;52.464;13.428;2024-01-16T00:53:11;8.15;;;3.13;;
81487;SDS011;70897;52.464;13.428;2024-01-16T00:55:56;12.27;;;3.20;;
81487;SDS011;70897;52.464;13.428;2024-01-16T00:58:41;9.68;;;3.80;;
81487;SDS011;70897;52.464;13.428;2024-01-16T01:01:26;10.23;;;3.70;;
81487;SDS011;70897;52.464;13.428;2024-01-16T01:04:11;7.50;;;3.70;;
81487;SDS011;70897;52.464;13.428;2024-01-16T01:06:56;6.63;;;2.92;;
81487;SDS011;70897;52.464;13.428;2024-01-16T01:09:41;6.10;;;2.40;;
81487;SDS011;70897;52.464;13.428;2024-01-16T01:12:26;7.70;;;2.75;;
81487;SDS011;70897;52.464;13.428;2024-01-16T01:15:11;10.73;;;4.43;;
81487;SDS011;70897;52.464;13.428;2024-01-16T01:17:58;7.10;;;2.60;;
81487;SDS011;70897;52.464;13.428;2024-01-16T01:20:43;5.75;;;2.20;;
81487;SDS011;70897;52.464;13.428;2024-01-16T01:23:28;7.13;;;2.10;;
81487;SDS011;70897;52.464;13.428;2024-01-16T01:26:13;4.65;;;1.80;;
81487;SDS011;70897;52.464;13.428;2024-01-16T01:28:58;4.65;;;1.77;;
81487;SDS011;70897;52.464;13.428;2024-01-16T01:31:45;5.07;;;1.40;;
81487;SDS011;70897;52.464;13.428;2024-01-16T01:34:32;5.20;;;1.52;;
81487;SDS011;70897;52.464;13.428;2024-01-16T01:37:17;4.38;;;1.65;;
81487;SDS011;70897;52.464;13.428;2024-01-16T01:40:02;4.50;;;1.63;;
81487;SDS011;70897;52.464;13.428;2024-01-16T01:42:47;4.03;;;1.38;;
81487;SDS011;70897;52.464;13.428;2024-01-16T01:45:32;3.88;;;1.60;;
81487;SDS011;70897;52.464;13.428;2024-01-16T01:48:17;6.95;;;1.60;;
81487;SDS011;70897;52.464;13.428;2024-01-16T01:51:02;2.72;;;1.70;;
81487;SDS011;70897;52.464;13.428;2024-01-16T01:53:48;6.70;;;2.08;;
81487;SDS011;70897;52.464;13.428;2024-01-16T01:56:35;2.35;;;1.60;;
81487;SDS011;70897;52.464;13.428;2024-01-16T01:59:21;5.63;;;1.95;;
81487;SDS011;70897;52.464;13.428;2024-01-16T02:02:07;6.70;;;2.10;;
81487;SDS011;70897;52.464;13.428;2024-01-16T02:04:52;8.50;;;2.00;;
81487;SDS011;70897;52.464;13.428;2024-01-16T02:07:38;5.15;;;2.10;;
81487;SDS011;70897;52.464;13.428;2024-01-16T02:10:23;4.45;;;2.13;;
81487;SDS011;70897;52.464;13.428;2024-01-16T02:13:08;6.05;;;1.85;;
81487;SDS011;70897;52.464;13.428;2024-01-16T02:15:53;3.40;;;1.70;;
81487;SDS011;70897;52.464;13.428;2024-01-16T02:18:38;5.25;;;1.95;;
81487;SDS011;70897;52.464;13.428;2024-01-16T02:21:25;3.83;;;1.90;;
81487;SDS011;70897;52.464;13.428;2024-01-16T02:24:12;5.63;;;1.80;;
81487;SDS011;70897;52.464;13.428;2024-01-16T02:26:58;4.25;;;1.73;;
81487;SDS011;70897;52.464;13.428;2024-01-16T02:29:43;3.83;;;1.70;;
81487;SDS011;70897;52.464;13.428;2024-01-16T02:32:28;3.65;;;1.65;;
81487;SDS011;70897;52.464;13.428;2024-01-16T02:35:13;2.95;;;1.60;;
81487;SDS011;70897;52.464;13.428;2024-01-16T02:37:58;5.68;;;1.73;;
81487;SDS011;70897;52.464;13.428;2024-01-16T02:40:45;5.13;;;1.75;;
81487;SDS011;70897;52.464;13.428;2024-01-16T02:43:30;3.08;;;1.63;;
81487;SDS011;70897;52.464;13.428;2024-01-16T02:46:15;5.50;;;1.80;;
81487;SDS011;70897;52.464;13.428;2024-01-16T02:49:00;7.13;;;2.15;;
81487;SDS011;70897;52.464;13.428;2024-01-16T02:51:45;7.65;;;2.30;;
81487;SDS011;70897;52.464;13.428;2024-01-16T02:54:30;8.25;;;2.30;;
81487;SDS011;70897;52.464;13.428;2024-01-16T02:57:15;5.60;;;1.90;;
81487;SDS011;70897;52.464;13.428;2024-01-16T03:00:00;6.72;;;2.60;;
81487;SDS011;70897;52.464;13.428;2024-01-16T03:02:45;5.13;;;1.90;;
81487;SDS011;70897;52.464;13.428;2024-01-16T03:05:30;6.35;;;2.30;;
81487;SDS011;70897;52.464;13.428;2024-01-16T03:08:15;5.97;;;2.10;;
81487;SDS011;70897;52.464;13.428;2024-01-16T03:10:59;7.20;;;2.47;;
81487;SDS011;70897;52.464;13.428;2024-01-16T03:13:44;4.35;;;2.50;;
81487;SDS011;70897;52.464;13.428;2024-01-16T03:16:29;7.22;;;2.28;;
81487;SDS011;70897;52.464;13.428;2024-01-16T03:19:14;5.55;;;2.05;;
81487;SDS011;70897;52.464;13.428;2024-01-16T03:22:00;6.50;;;2.70;;
81487;SDS011;70897;52.464;13.428;2024-01-16T03:24:45;4.95;;;2.30;;
81487;SDS011;70897;52.464;13.428;2024-01-16T03:27:30;3.88;;;1.90;;
81487;SDS011;70897;52.464;13.428;2024-01-16T03:30:15;8.38;;;1.80;;
81487;SDS011;70897;52.464;13.428;2024-01-16T03:33:00;6.53;;;2.17;;
81487;SDS011;70897;52.464;13.428;2024-01-16T03:35:45;3.25;;;1.92;;
81487;SDS011;70897;52.464;13.428;2024-01-16T03:38:31;6.50;;;2.67;;
81487;SDS011;70897;52.464;13.428;2024-01-16T03:41:16;3.80;;;1.80;;
81487;SDS011;70897;52.464;13.428;2024-01-16T03:44:02;4.40;;;1.95;;
81487;SDS011;70897;52.464;13.428;2024-01-16T03:46:46;4.80;;;2.05;;
81487;SDS011;70897;52.464;13.428;2024-01-16T03:49:32;5.32;;;2.30;;
81487;SDS011;70897;52.464;13.428;2024-01-16T03:52:17;6.95;;;2.90;;
81487;SDS011;70897;52.464;13.428;2024-01-16T03:55:02;7.30;;;2.58;;
81487;SDS011;70897;52.464;13.428;2024-01-16T03:57:48;6.45;;;2.50;;
81487;SDS011;70897;52.464;13.428;2024-01-16T04:00:33;6.97;;;2.30;;
81487;SDS011;70897;52.464;13.428;2024-01-16T04:03:18;6.32;;;2.42;;
81487;SDS011;70897;52.464;13.428;2024-01-16T04:06:03;3.63;;;1.83;;
81487;SDS011;70897;52.464;13.428;2024-01-16T04:08:48;5.57;;;2.45;;
81487;SDS011;70897;52.464;13.428;2024-01-16T04:11:33;4.45;;;2.03;;
81487;SDS011;70897;52.464;13.428;2024-01-16T04:14:18;5.45;;;2.20;;
81487;SDS011;70897;52.464;13.428;2024-01-16T04:17:03;5.93;;;2.50;;
81487;SDS011;70897;52.464;13.428;2024-01-16T04:19:48;5.45;;;2.20;;
81487;SDS011;70897;52.464;13.428;2024-01-16T04:22:33;4.45;;;2.00;;
81487;SDS011;70897;52.464;13.428;2024-01-16T04:25:18;3.55;;;2.20;;
81487;SDS011;70897;52.464;13.428;2024-01-16T04:28:03;6.13;;;2.10;;
81487;SDS011;70897;52.464;13.428;2024-01-16T04:30:48;3.88;;;2.10;;
81487;SDS011;70897;52.464;13.428;2024-01-16T04:33:33;6.50;;;2.30;;
81487;SDS011;70897;52.464;13.428;2024-01-16T04:36:18;7.85;;;2.25;;
81487;SDS011;70897;52.464;13.428;2024-01-16T04:39:03;8.02;;;2.40;;
81487;SDS011;70897;52.464;13.428;2024-01-16T04:41:51;3.83;;;2.25;;
81487;SDS011;70897;52.464;13.428;2024-01-16T04:44:36;8.30;;;2.58;;
81487;SDS011;70897;52.464;13.428;2024-01-16T04:47:21;6.45;;;2.40;;
81487;SDS011;70897;52.464;13.428;2024-01-16T04:50:06;9.75;;;2.50;;
81487;SDS011;70897;52.464;13.428;2024-01-16T04:52:52;7.53;;;2.42;;
81487;SDS011;70897;52.464;13.428;2024-01-16T04:55:38;5.90;;;2.40;;
81487;SDS011;70897;52.464;13.428;2024-01-16T04:58:23;7.13;;;2.47;;
81487;SDS011;70897;52.464;13.428;2024-01-16T05:01:08;5.68;;;2.45;;
81487;SDS011;70897;52.464;13.428;2024-01-16T05:03:53;7.03;;;2.50;;
81487;SDS011;70897;52.464;13.428;2024-01-16T05:06:39;6.80;;;2.20;;
81487;SDS011;70897;52.464;13.428;2024-01-16T05:09:24;6.03;;;2.75;;
81487;SDS011;70897;52.464;13.428;2024-01-16T05:12:09;7.68;;;2.70;;
81487;SDS011;70897;52.464;13.428;2024-01-16T05:14:54;6.65;;;2.63;;
81487;SDS011;70897;52.464;13.428;2024-01-16T05:17:39;9.98;;;2.67;;
81487;SDS011;70897;52.464;13.428;2024-01-16T05:20:24;5.68;;;2.80;;
81487;SDS011;70897;52.464;13.428;2024-01-16T05:23:09;6.35;;;2.60;;
81487;SDS011;70897;52.464;13.428;2024-01-16T05:25:54;8.18;;;2.60;;
81487;SDS011;70897;52.464;13.428;2024-01-16T05:28:39;10.15;;;2.80;;
81487;SDS011;70897;52.464;13.428;2024-01-16T05:31:24;8.45;;;2.85;;
81487;SDS011;70897;52.464;13.428;2024-01-16T05:34:10;5.35;;;2.70;;
81487;SDS011;70897;52.464;13.428;2024-01-16T05:36:54;9.07;;;2.80;;
81487;SDS011;70897;52.464;13.428;2024-01-16T05:39:40;5.63;;;2.90;;
81487;SDS011;70897;52.464;13.428;2024-01-16T05:42:24;6.97;;;2.70;;
81487;SDS011;70897;52.464;13.428;2024-01-16T05:45:10;5.10;;;2.75;;
81487;SDS011;70897;52.464;13.428;2024-01-16T05:47:55;5.53;;;2.72;;
81487;SDS011;70897;52.464;13.428;2024-01-16T05:50:41;10.90;;;2.65;;
81487;SDS011;70897;52.464;13.428;2024-01-16T05:53:26;7.50;;;3.03;;
81487;SDS011;70897;52.464;13.428;2024-01-16T05:56:11;9.93;;;3.20;;
81487;SDS011;70897;52.464;13.428;2024-01-16T05:58:56;6.90;;;2.70;;
81487;SDS011;70897;52.464;13.428;2024-01-16T06:01:41;6.22;;;2.90;;
81487;SDS011;70897;52.464;13.428;2024-01-16T06:04:27;4.80;;;2.75;;
81487;SDS011;70897;52.464;13.428;2024-01-16T06:07:11;3.97;;;2.92;;
81487;SDS011;70897;52.464;13.428;2024-01-16T06:09:56;4.72;;;2.90;;
81487;SDS011;70897;52.464;13.428;2024-01-16T06:12:42;6.85;;;3.65;;
81487;SDS011;70897;52.464;13.428;2024-01-16T06:15:27;9.63;;;3.50;;
81487;SDS011;70897;52.464;13.428;2024-01-16T06:18:12;5.05;;;3.13;;
81487;SDS011;70897;52.464;13.428;2024-01-16T06:20:57;10.45;;;3.45;;
81487;SDS011;70897;52.464;13.428;2024-01-16T06:23:42;9.75;;;3.35;;
81487;SDS011;70897;52.464;13.428;2024-01-16T06:26:27;7.30;;;3.30;;
81487;SDS011;70897;52.464;13.428;2024-01-16T06:29:12;7.07;;;3.20;;
81487;SDS011;70897;52.464;13.428;2024-01-16T06:31:57;10.85;;;3.75;;
81487;SDS011;70897;52.464;13.428;2024-01-16T06:34:42;9.48;;;4.07;;
81487;SDS011;70897;52.464;13.428;2024-01-16T06:37:27;9.57;;;3.85;;
81487;SDS011;70897;52.464;13.428;2024-01-16T06:40:12;12.05;;;4.50;;
81487;SDS011;70897;52.464;13.428;2024-01-16T06:42:57;11.63;;;4.03;;
81487;SDS011;70897;52.464;13.428;2024-01-16T06:45:42;7.30;;;4.07;;
81487;SDS011;70897;52.464;13.428;2024-01-16T06:48:27;8.68;;;4.03;;
81487;SDS011;70897;52.464;13.428;2024-01-16T06:51:12;11.45;;;3.95;;
81487;SDS011;70897;52.464;13.428;2024-01-16T06:53:58;10.40;;;4.32;;
81487;SDS011;70897;52.464;13.428;2024-01-16T06:56:43;8.95;;;3.70;;
81487;SDS011;70897;52.464;13.428;2024-01-16T06:59:28;9.32;;;3.58;;
81487;SDS011;70897;52.464;13.428;2024-01-16T07:02:13;9.45;;;3.80;;
81487;SDS011;70897;52.464;13.428;2024-01-16T07:04:58;14.05;;;4.40;;
81487;SDS011;70897;52.464;13.428;2024-01-16T07:07:43;8.05;;;3.78;;
81487;SDS011;70897;52.464;13.428;2024-01-16T07:10:28;9.27;;;3.90;;
81487;SDS011;70897;52.464;13.428;2024-01-16T07:13:13;6.80;;;3.75;;
81487;SDS011;70897;52.464;13.428;2024-01-16T07:15:58;13.77;;;3.75;;
81487;SDS011;70897;52.464;13.428;2024-01-16T07:18:43;9.07;;;3.72;;
81487;SDS011;70897;52.464;13.428;2024-01-16T07:21:29;11.57;;;4.25;;
81487;SDS011;70897;52.464;13.428;2024-01-16T07:24:14;10.45;;;4.10;;
81487;SDS011;70897;52.464;13.428;2024-01-16T07:26:59;9.30;;;3.90;;
81487;SDS011;70897;52.464;13.428;2024-01-16T07:29:44;10.05;;;4.07;;
81487;SDS011;70897;52.464;13.428;2024-01-16T07:32:29;8.52;;;4.20;;
81487;SDS011;70897;52.464;13.428;2024-01-16T07:35:14;7.95;;;4.00;;
81487;SDS011;70897;52.464;13.428;2024-01-16T07:38:00;10.80;;;4.80;;
81487;SDS011;70897;52.464;13.428;2024-01-16T07:40:45;5.55;;;3.72;;
81487;SDS011;70897;52.464;13.428;2024-01-16T07:43:29;11.68;;;4.30;;
81487;SDS011;70897;52.464;13.428;2024-01-16T07:46:14;10.93;;;4.35;;
81487;SDS011;70897;52.464;13.428;2024-01-16T07:49:00;11.23;;;4.47;;
81487;SDS011;70897;52.464;13.428;2024-01-16T07:51:45;9.75;;;4.53;;
81487;SDS011;70897;52.464;13.428;2024-01-16T07:54:30;11.77;;;5.30;;
81487;SDS011;70897;52.464;13.428;2024-01-16T07:57:15;13.07;;;4.45;;
81487;SDS011;70897;52.464;13.428;2024-01-16T08:00:00;12.82;;;4.38;;
81487;SDS011;70897;52.464;13.428;2024-01-16T08:02:49;9.13;;;4.18;;
81487;SDS011;70897;52.464;13.428;2024-01-16T08:05:34;10.93;;;4.90;;
81487;SDS011;70897;52.464;13.428;2024-01-16T08:08:19;9.23;;;4.28;;
81487;SDS011;70897;52.464;13.428;2024-01-16T08:11:04;8.90;;;4.63;;
81487;SDS011;70897;52.464;13.428;2024-01-16T08:13:50;11.82;;;5.10;;
81487;SDS011;70897;52.464;13.428;2024-01-16T08:16:35;9.85;;;4.53;;
81487;SDS011;70897;52.464;13.428;2024-01-16T08:19:20;9.55;;;4.63;;
81487;SDS011;70897;52.464;13.428;2024-01-16T08:22:04;9.20;;;4.70;;
81487;SDS011;70897;52.464;13.428;2024-01-16T08:24:50;8.80;;;5.10;;
81487;SDS011;70897;52.464;13.428;2024-01-16T08:27:35;10.60;;;4.70;;
81487;SDS011;70897;52.464;13.428;2024-01-16T08:30:21;11.20;;;4.50;;
81487;SDS011;70897;52.464;13.428;2024-01-16T08:33:07;11.48;;;4.60;;
81487;SDS011;70897;52.464;13.428;2024-01-16T08:35:52;7.38;;;4.18;;
81487;SDS011;70897;52.464;13.428;2024-01-16T08:38:37;8.30;;;4.75;;
81487;SDS011;70897;52.464;13.428;2024-01-16T08:41:22;10.32;;;4.47;;
81487;SDS011;70897;52.464;13.428;2024-01-16T08:44:08;8.85;;;4.72;;
81487;SDS011;70897;52.464;13.428;2024-01-16T08:46:53;11.27;;;4.65;;
81487;SDS011;70897;52.464;13.428;2024-01-16T08:49:38;11.55;;;5.28;;
81487;SDS011;70897;52.464;13.428;2024-01-16T08:52:24;10.15;;;4.90;;
81487;SDS011;70897;52.464;13.428;2024-01-16T08:55:09;12.93;;;5.70;;
81487;SDS011;70897;52.464;13.428;2024-01-16T08:57:54;10.63;;;5.80;;
81487;SDS011;70897;52.464;13.428;2024-01-16T09:00:39;10.27;;;5.45;;
81487;SDS011;70897;52.464;13.428;2024-01-16T09:03:24;11.20;;;6.03;;
81487;SDS011;70897;52.464;13.428;2024-01-16T09:06:09;12.15;;;5.80;;
81487;SDS011;70897;52.464;13.428;2024-01-16T09:08:55;13.10;;;6.18;;
81487;SDS011;70897;52.464;13.428;2024-01-16T09:11:40;11.82;;;6.32;;
81487;SDS011;70897;52.464;13.428;2024-01-16T09:14:25;13.25;;;6.13;;
81487;SDS011;70897;52.464;13.428;2024-01-16T09:17:10;9.10;;;5.28;;
81487;SDS011;70897;52.464;13.428;2024-01-16T09:19:55;11.65;;;5.40;;
81487;SDS011;70897;52.464;13.428;2024-01-16T09:22:40;10.65;;;6.03;;
81487;SDS011;70897;52.464;13.428;2024-01-16T09:25:25;12.50;;;6.32;;
81487;SDS011;70897;52.464;13.428;2024-01-16T09:28:12;13.02;;;6.78;;
81487;SDS011;70897;52.464;13.428;2024-01-16T09:30:57;10.48;;;6.13;;
81487;SDS011;70897;52.464;13.428;2024-01-16T09:33:42;17.60;;;6.07;;
81487;SDS011;70897;52.464;13.428;2024-01-16T09:36:27;11.05;;;6.03;;
81487;SDS011;70897;52.464;13.428;2024-01-16T09:39:13;11.20;;;5.88;;
81487;SDS011;70897;52.464;13.428;2024-01-16T09:42:03;11.02;;;6.20;;
81487;SDS011;70897;52.464;13.428;2024-01-16T09:44:48;13.88;;;6.80;;
81487;SDS011;70897;52.464;13.428;2024-01-16T09:47:36;11.50;;;6.70;;
81487;SDS011;70897;52.464;13.428;2024-01-16T09:50:23;11.52;;;6.50;;
81487;SDS011;70897;52.464;13.428;2024-01-16T09:53:08;12.40;;;6.80;;
81487;SDS011;70897;52.464;13.428;2024-01-16T09:55:54;13.65;;;7.47;;
81487;SDS011;70897;52.464;13.428;2024-01-16T09:58:43;11.70;;;6.82;;
81487;SDS011;70897;52.464;13.428;2024-01-16T10:01:28;14.07;;;7.28;;
81487;SDS011;70897;52.464;13.428;2024-01-16T10:04:15;11.60;;;6.88;;
81487;SDS011;70897;52.464;13.428;2024-01-16T10:07:01;14.00;;;7.28;;
81487;SDS011;70897;52.464;13.428;2024-01-16T10:09:47;15.20;;;7.13;;
81487;SDS011;70897;52.464;13.428;2024-01-16T10:12:33;13.95;;;6.18;;
81487;SDS011;70897;52.464;13.428;2024-01-16T10:15:18;13.48;;;6.13;;
81487;SDS011;70897;52.464;13.428;2024-01-16T10:18:05;14.27;;;6.28;;
81487;SDS011;70897;52.464;13.428;2024-01-16T10:21:05;10.40;;;6.32;;
81487;SDS011;70897;52.464;13.428;2024-01-16T10:24:12;9.82;;;6.57;;
81487;SDS011;70897;52.464;13.428;2024-01-16T10:26:57;11.68;;;6.40;;
81487;SDS011;70897;52.464;13.428;2024-01-16T10:29:54;11.23;;;5.70;;
81487;SDS011;70897;52.464;13.428;2024-01-16T10:32:42;13.25;;;6.15;;
81487;SDS011;70897;52.464;13.428;2024-01-16T10:35:28;9.75;;;5.35;;
81487;SDS011;70897;52.464;13.428;2024-01-16T10:38:19;16.45;;;6.25;;
81487;SDS011;70897;52.464;13.428;2024-01-16T10:41:08;11.25;;;5.72;;
81487;SDS011;70897;52.464;13.428;2024-01-16T10:44:04;14.13;;;5.20;;
81487;SDS011;70897;52.464;13.428;2024-01-16T10:47:10;12.05;;;5.70;;
81487;SDS011;70897;52.464;13.428;2024-01-16T10:49:56;10.88;;;5.00;;
81487;SDS011;70897;52.464;13.428;2024-01-16T10:52:46;11.25;;;4.65;;
81487;SDS011;70897;52.464;13.428;2024-01-16T10:58:35;9.18;;;3.78;;
81487;SDS011;70897;52.464;13.428;2024-01-16T11:01:22;6.80;;;3.55;;
81487;SDS011;70897;52.464;13.428;2024-01-16T11:04:09;9.55;;;3.90;;
81487;SDS011;70897;52.464;13.428;2024-01-16T11:06:56;7.20;;;3.30;;
81487;SDS011;70897;52.464;13.428;2024-01-16T11:09:41;7.70;;;3.45;;
81487;SDS011;70897;52.464;13.428;2024-01-16T11:12:29;9.50;;;3.35;;
81487;SDS011;70897;52.464;13.428;2024-01-16T11:15:16;9.00;;;3.17;;
81487;SDS011;70897;52.464;13.428;2024-01-16T11:18:01;8.90;;;3.00;;
81487;SDS011;70897;52.464;13.428;2024-01-16T11:20:47;8.85;;;3.63;;
81487;SDS011;70897;52.464;13.428;2024-01-16T11:23:32;10.10;;;3.10;;
81487;SDS011;70897;52.464;13.428;2024-01-16T11:26:29;9.52;;;3.20;;
81487;SDS011;70897;52.464;13.428;2024-01-16T11:32:13;5.88;;;3.13;;
81487;SDS011;70897;52.464;13.428;2024-01-16T11:38:21;8.70;;;3.53;;
81487;SDS011;70897;52.464;13.428;2024-01-16T11:41:06;12.02;;;3.40;;
81487;SDS011;70897;52.464;13.428;2024-01-16T11:43:51;9.60;;;3.20;;
81487;SDS011;70897;52.464;13.428;2024-01-16T11:49:51;9.10;;;3.20;;
81487;SDS011;70897;52.464;13.428;2024-01-16T11:52:53;7.93;;;3.53;;
81487;SDS011;70897;52.464;13.428;2024-01-16T11:59:14;8.38;;;4.03;;
81487;SDS011;70897;52.464;13.428;2024-01-16T12:02:26;17.50;;;4.80;;
81487;SDS011;70897;52.464;13.428;2024-01-16T12:05:23;11.40;;;4.35;;
81487;SDS011;70897;52.464;13.428;2024-01-16T12:08:08;12.85;;;4.60;;
81487;SDS011;70897;52.464;13.428;2024-01-16T12:10:53;8.25;;;4.30;;
81487;SDS011;70897;52.464;13.428;2024-01-16T12:13:39;10.13;;;4.40;;
81487;SDS011;70897;52.464;13.428;2024-01-16T12:16:24;14.02;;;5.72;;
81487;SDS011;70897;52.464;13.428;2024-01-16T12:19:10;10.25;;;4.45;;
81487;SDS011;70897;52.464;13.428;2024-01-16T12:21:58;8.65;;;4.93;;
81487;SDS011;70897;52.464;13.428;2024-01-16T12:24:43;10.10;;;4.38;;
81487;SDS011;70897;52.464;13.428;2024-01-16T12:27:29;14.57;;;5.45;;
81487;SDS011;70897;52.464;13.428;2024-01-16T12:30:15;10.80;;;5.28;;
81487;SDS011;70897;52.464;13.428;2024-01-16T12:33:04;14.85;;;4.85;;
81487;SDS011;70897;52.464;13.428;2024-01-16T12:36:00;9.38;;;4.32;;
81487;SDS011;70897;52.464;13.428;2024-01-16T12:38:53;12.73;;;5.20;;
81487;SDS011;70897;52.464;13.428;2024-01-16T12:41:41;15.27;;;4.63;;
81487;SDS011;70897;52.464;13.428;2024-01-16T12:44:28;15.93;;;4.25;;
81487;SDS011;70897;52.464;13.428;2024-01-16T12:47:17;7.90;;;4.25;;
81487;SDS011;70897;52.464;13.428;2024-01-16T12:50:06;14.23;;;5.13;;
81487;SDS011;70897;52.464;13.428;2024-01-16T12:55:48;9.02;;;4.65;;
81487;SDS011;70897;52.464;13.428;2024-01-16T12:58:45;10.95;;;4.13;;
81487;SDS011;70897;52.464;13.428;2024-01-16T13:01:31;8.57;;;4.20;;
81487;SDS011;70897;52.464;13.428;2024-01-16T13:04:18;11.05;;;4.75;;
81487;SDS011;70897;52.464;13.428;2024-01-16T13:07:03;11.43;;;4.35;;
81487;SDS011;70897;52.464;13.428;2024-01-16T13:09:49;11.02;;;4.40;;
81487;SDS011;70897;52.464;13.428;2024-01-16T13:12:34;9.98;;;4.68;;
81487;SDS011;70897;52.464;13.428;2024-01-16T13:15:21;11.15;;;4.30;;
81487;SDS011;70897;52.464;13.428;2024-01-16T13:18:06;11.98;;;4.07;;
81487;SDS011;70897;52.464;13.428;2024-01-16T13:21:01;17.73;;;4.50;;
81487;SDS011;70897;52.464;13.428;2024-01-16T13:23:46;15.40;;;4.25;;
81487;SDS011;70897;52.464;13.428;2024-01-16T13:26:31;11.40;;;3.85;;
81487;SDS011;70897;52.464;13.428;2024-01-16T13:29:17;10.00;;;3.83;;
81487;SDS011;70897;52.464;13.428;2024-01-16T13:32:02;13.32;;;3.83;;
81487;SDS011;70897;52.464;13.428;2024-01-16T13:34:47;11.25;;;4.10;;
81487;SDS011;70897;52.464;13.428;2024-01-16T13:37:34;13.00;;;4.13;;
81487;SDS011;70897;52.464;13.428;2024-01-16T13:40:21;30.50;;;8.73;;
81487;SDS011;70897;52.464;13.428;2024-01-16T13:43:07;34.97;;;10.13;;
81487;SDS011;70897;52.464;13.428;2024-01-16T13:45:52;24.00;;;7.10;;
81487;SDS011;70897;52.464;13.428;2024-01-16T13:48:37;19.80;;;6.20;;
81487;SDS011;70897;52.464;13.428;2024-01-16T13:51:22;22.50;;;6.97;;
81487;SDS011;70897;52.464;13.428;2024-01-16T13:54:08;16.80;;;5.15;;
81487;SDS011;70897;52.464;13.428;2024-01-16T13:56:53;15.27;;;4.78;;
81487;SDS011;70897;52.464;13.428;2024-01-16T13:59:38;15.40;;;4.57;;
81487;SDS011;70897;52.464;13.428;2024-01-16T14:02:23;9.82;;;3.38;;
81487;SDS011;70897;52.464;13.428;2024-01-16T14:05:09;14.32;;;3.65;;
81487;SDS011;70897;52.464;13.428;2024-01-16T14:07:55;13.90;;;4.40;;
81487;SDS011;70897;52.464;13.428;2024-01-16T14:10:40;10.38;;;3.90;;
81487;SDS011;70897;52.464;13.428;2024-01-16T14:13:25;11.55;;;3.55;;
81487;SDS011;70897;52.464;13.428;2024-01-16T14:16:11;12.80;;;4.10;;
81487;SDS011;70897;52.464;13.428;2024-01-16T14:18:56;9.77;;;4.25;;
81487;SDS011;70897;52.464;13.428;2024-01-16T14:21:41;11.90;;;4.22;;
81487;SDS011;70897;52.464;13.428;2024-01-16T14:24:27;12.20;;;3.80;;
81487;SDS011;70897;52.464;13.428;2024-01-16T14:27:12;10.77;;;3.42;;
81487;SDS011;70897;52.464;13.428;2024-01-16T14:29:57;11.27;;;3.92;;
81487;SDS011;70897;52.464;13.428;2024-01-16T14:32:43;11.95;;;3.45;;
81487;SDS011;70897;52.464;13.428;2024-01-16T14:35:28;15.27;;;3.92;;
81487;SDS011;70897;52.464;13.428;2024-01-16T14:38:13;14.55;;;3.65;;
81487;SDS011;70897;52.464;13.428;2024-01-16T14:40:58;7.28;;;3.22;;
81487;SDS011;70897;52.464;13.428;2024-01-16T14:43:43;11.40;;;3.40;;
81487;SDS011;70897;52.464;13.428;2024-01-16T14:46:28;11.75;;;3.78;;
81487;SDS011;70897;52.464;13.428;2024-01-16T14:49:13;9.40;;;4.07;;
81487;SDS011;70897;52.464;13.428;2024-01-16T14:51:59;13.75;;;3.65;;
81487;SDS011;70897;52.464;13.428;2024-01-16T14:54:45;10.65;;;3.80;;
81487;SDS011;70897;52.464;13.428;2024-01-16T14:57:30;11.77;;;3.58;;
81487;SDS011;70897;52.464;13.428;2024-01-16T15:00:16;9.10;;;3.60;;
81487;SDS011;70897;52.464;13.428;2024-01-16T15:03:04;15.27;;;4.22;;
81487;SDS011;70897;52.464;13.428;2024-01-16T15:05:50;11.63;;;3.53;;
81487;SDS011;70897;52.464;13.428;2024-01-16T15:08:37;16.20;;;5.10;;
81487;SDS011;70897;52.464;13.428;2024-01-16T15:11:22;17.45;;;4.38;;
81487;SDS011;70897;52.464;13.428;2024-01-16T15:14:11;18.92;;;5.35;;
81487;SDS011;70897;52.464;13.428;2024-01-16T15:16:57;15.48;;;4.30;;
81487;SDS011;70897;52.464;13.428;2024-01-16T15:19:42;8.80;;;4.60;;
81487;SDS011;70897;52.464;13.428;2024-01-16T15:22:27;13.35;;;5.07;;
81487;SDS011;70897;52.464;13.428;2024-01-16T15:25:13;12.23;;;4.95;;
81487;SDS011;70897;52.464;13.428;2024-01-16T15:28:00;16.27;;;5.22;;
81487;SDS011;70897;52.464;13.428;2024-01-16T15:30:45;12.65;;;5.25;;
81487;SDS011;70897;52.464;13.428;2024-01-16T15:33:32;14.35;;;5.43;;
81487;SDS011;70897;52.464;13.428;2024-01-16T15:36:20;14.68;;;5.05;;
81487;SDS011;70897;52.464;13.428;2024-01-16T15:39:06;11.65;;;4.72;;
81487;SDS011;70897;52.464;13.428;2024-01-16T15:41:52;13.45;;;5.28;;
81487;SDS011;70897;52.464;13.428;2024-01-16T15:44:40;13.40;;;5.88;;
81487;SDS011;70897;52.464;13.428;2024-01-16T15:47:25;15.07;;;6.18;;
81487;SDS011;70897;52.464;13.428;2024-01-16T15:50:10;13.18;;;5.72;;
81487;SDS011;70897;52.464;13.428;2024-01-16T15:52:55;17.58;;;5.78;;
81487;SDS011;70897;52.464;13.428;2024-01-16T15:55:45;17.63;;;5.47;;
81487;SDS011;70897;52.464;13.428;2024-01-16T15:58:30;17.83;;;6.68;;
81487;SDS011;70897;52.464;13.428;2024-01-16T16:01:17;15.10;;;5.72;;
81487;SDS011;70897;52.464;13.428;2024-01-16T16:04:02;15.63;;;5.72;;
81487;SDS011;70897;52.464;13.428;2024-01-16T16:06:47;17.70;;;7.13;;
81487;SDS011;70897;52.464;13.428;2024-01-16T16:09:33;14.80;;;6.57;;
81487;SDS011;70897;52.464;13.428;2024-01-16T16:12:20;16.42;;;6.47;;
81487;SDS011;70897;52.464;13.428;2024-01-16T16:15:06;13.35;;;6.30;;
81487;SDS011;70897;52.464;13.428;2024-01-16T16:17:51;18.73;;;6.90;;
81487;SDS011;70897;52.464;13.428;2024-01-16T16:20:37;18.38;;;7.40;;
81487;SDS011;70897;52.464;13.428;2024-01-16T16:23:23;20.60;;;7.53;;
81487;SDS011;70897;52.464;13.428;2024-01-16T16:26:08;13.50;;;7.15;;
81487;SDS011;70897;52.464;13.428;2024-01-16T16:28:53;20.02;;;7.05;;
81487;SDS011;70897;52.464;13.428;2024-01-16T16:31:39;23.38;;;7.75;;
81487;SDS011;70897;52.464;13.428;2024-01-16T16:34:25;15.07;;;6.97;;
81487;SDS011;70897;52.464;13.428;2024-01-16T16:37:10;15.50;;;7.22;;